sensor_id;sensor_type;location;lat;lon;timestamp;pressure;altitude;pressure_sealevel;temperature;humidity
36092;BME280;22147;52.388;13.390;2023-08-06T00:01:29;100116.31;;;14.86;100.00
36092;BME280;22147;52.388;13.390;2023-08-06T00:03:59;100114.25;;;14.83;100.00
36092;BME280;22147;52.388;13.390;2023-08-06T00:06:30;100108.66;;;14.83;100.00
36092;BME280;22147;52.388;13.390;2023-08-06T00:08:59;100116.69;;;14.85;100.00
36092;BME280;22147;52.388;13.390;2023-08-06T00:11:27;100103.47;;;14.82;100.00
36092;BME280;22147;52.388;13.390;2023-08-06T00:13:56;100103.03;;;14.80;100.00
36092;BME280;22147;52.388;13.390;2023-08-06T00:16:24;100094.22;;;14.78;100.00
36092;BME280;22147;52.388;13.390;2023-08-06T00:18:53;100095.38;;;14.77;100.00
36092;BME280;22147;52.388;13.390;2023-08-06T00:21:21;100092.56;;;14.77;100.00
36092;BME280;22147;52.388;13.390;2023-08-06T00:23:51;100090.19;;;14.75;100.00
36092;BME280;22147;52.388;13.390;2023-08-06T00:26:22;100089.75;;;14.73;100.00
36092;BME280;22147;52.388;13.390;2023-08-06T00:28:52;100092.91;;;14.72;100.00
36092;BME280;22147;52.388;13.390;2023-08-06T00:31:22;100092.16;;;14.75;100.00
36092;BME280;22147;52.388;13.390;2023-08-06T00:33:52;100091.34;;;14.74;100.00
36092;BME280;22147;52.388;13.390;2023-08-06T00:36:22;100089.66;;;14.70;100.00
36092;BME280;22147;52.388;13.390;2023-08-06T00:38:53;100092.03;;;14.68;100.00
36092;BME280;22147;52.388;13.390;2023-08-06T00:41:25;100089.66;;;14.70;100.00
36092;BME280;22147;52.388;13.390;2023-08-06T00:43:55;100088.53;;;14.74;100.00
36092;BME280;22147;52.388;13.390;2023-08-06T00:46:27;100092.53;;;14.73;100.00
36092;BME280;22147;52.388;13.390;2023-08-06T00:48:58;100085.25;;;14.69;100.00
36092;BME280;22147;52.388;13.390;2023-08-06T00:51:28;100092.81;;;14.68;100.00
36092;BME280;22147;52.388;13.390;2023-08-06T00:53:59;100085.63;;;14.67;100.00
36092;BME280;22147;52.388;13.390;2023-08-06T00:56:30;100076.38;;;14.63;100.00
36092;BME280;22147;52.388;13.390;2023-08-06T00:59:01;100076.75;;;14.61;100.00
36092;BME280;22147;52.388;13.390;2023-08-06T01:01:31;100077.09;;;14.60;100.00
36092;BME280;22147;52.388;13.390;2023-08-06T01:04:02;100075.09;;;14.60;100.00
36092;BME280;22147;52.388;13.390;2023-08-06T01:06:52;100076.66;;;14.58;100.00
36092;BME280;22147;52.388;13.390;2023-08-06T01:09:45;100069.84;;;14.55;100.00
36092;BME280;22147;52.388;13.390;2023-08-06T01:15:54;100072.09;;;14.50;100.00
36092;BME280;22147;52.388;13.390;2023-08-06T01:18:27;100060.91;;;14.50;100.00
36092;BME280;22147;52.388;13.390;2023-08-06T01:20:57;100054.88;;;14.48;100.00
36092;BME280;22147;52.388;13.390;2023-08-06T01:23:27;100060.00;;;14.42;100.00
36092;BME280;22147;52.388;13.390;2023-08-06T01:26:11;100048.31;;;14.36;100.00
36092;BME280;22147;52.388;13.390;2023-08-06T01:29:17;100048.66;;;14.35;100.00
36092;BME280;22147;52.388;13.390;2023-08-06T01:31:56;100042.63;;;14.33;100.00
36092;BME280;22147;52.388;13.390;2023-08-06T01:34:32;100038.59;;;14.30;100.00
36092;BME280;22147;52.388;13.390;2023-08-06T01:37:04;100038.97;;;14.29;100.00
36092;BME280;22147;52.388;13.390;2023-08-06T01:39:35;100041.75;;;14.29;100.00
36092;BME280;22147;52.388;13.390;2023-08-06T01:42:07;100034.13;;;14.25;100.00
36092;BME280;22147;52.388;13.390;2023-08-06T01:44:38;100030.81;;;14.20;100.00
36092;BME280;22147;52.388;13.390;2023-08-06T01:47:08;100033.63;;;14.20;100.00
36092;BME280;22147;52.388;13.390;2023-08-06T01:49:38;100033.19;;;14.18;100.00
36092;BME280;22147;52.388;13.390;2023-08-06T01:52:09;100021.97;;;14.14;100.00
36092;BME280;22147;52.388;13.390;2023-08-06T01:54:39;100018.66;;;14.09;100.00
36092;BME280;22147;52.388;13.390;2023-08-06T01:57:09;100024.59;;;14.07;100.00
36092;BME280;22147;52.388;13.390;2023-08-06T01:59:38;100014.63;;;14.06;100.00
36092;BME280;22147;52.388;13.390;2023-08-06T02:02:06;100016.19;;;14.03;100.00
36092;BME280;22147;52.388;13.390;2023-08-06T02:04:35;100013.75;;;14.02;100.00
36092;BME280;22147;52.388;13.390;2023-08-06T02:07:03;100014.53;;;14.02;100.00
36092;BME280;22147;52.388;13.390;2023-08-06T02:09:32;100014.97;;;14.04;100.00
36092;BME280;22147;52.388;13.390;2023-08-06T02:12:00;100020.66;;;14.08;100.00
36092;BME280;22147;52.388;13.390;2023-08-06T02:14:29;100012.56;;;14.03;100.00
36092;BME280;22147;52.388;13.390;2023-08-06T02:16:57;100010.94;;;14.02;100.00
36092;BME280;22147;52.388;13.390;2023-08-06T02:19:25;100005.72;;;14.00;100.00
36092;BME280;22147;52.388;13.390;2023-08-06T02:21:54;100002.13;;;14.00;100.00
36092;BME280;22147;52.388;13.390;2023-08-06T02:24:22;100001.69;;;13.98;100.00
36092;BME280;22147;52.388;13.390;2023-08-06T02:26:54;100007.19;;;13.94;100.00
36092;BME280;22147;52.388;13.390;2023-08-06T02:29:25;99998.78;;;13.91;100.00
36092;BME280;22147;52.388;13.390;2023-08-06T02:31:55;99993.56;;;13.89;100.00
36092;BME280;22147;52.388;13.390;2023-08-06T02:34:25;99991.56;;;13.90;100.00
36092;BME280;22147;52.388;13.390;2023-08-06T02:36:55;99989.13;;;13.88;100.00
36092;BME280;22147;52.388;13.390;2023-08-06T02:39:25;99979.53;;;13.85;100.00
36092;BME280;22147;52.388;13.390;2023-08-06T02:41:55;99982.75;;;13.88;100.00
36092;BME280;22147;52.388;13.390;2023-08-06T02:44:29;99986.72;;;13.87;100.00
36092;BME280;22147;52.388;13.390;2023-08-06T02:46:58;99976.16;;;13.76;100.00
36092;BME280;22147;52.388;13.390;2023-08-06T02:49:28;99971.28;;;13.73;100.00
36092;BME280;22147;52.388;13.390;2023-08-06T02:51:58;99974.75;;;13.67;100.00
36092;BME280;22147;52.388;13.390;2023-08-06T02:54:28;99972.25;;;13.61;100.00
36092;BME280;22147;52.388;13.390;2023-08-06T02:56:58;99975.41;;;13.60;100.00
36092;BME280;22147;52.388;13.390;2023-08-06T02:59:28;99973.72;;;13.55;100.00
36092;BME280;22147;52.388;13.390;2023-08-06T03:01:58;99972.09;;;13.54;100.00
36092;BME280;22147;52.388;13.390;2023-08-06T03:04:26;99972.94;;;13.55;100.00
36092;BME280;22147;52.388;13.390;2023-08-06T03:06:55;99969.69;;;13.53;100.00
36092;BME280;22147;52.388;13.390;2023-08-06T03:09:23;99964.47;;;13.51;100.00
36092;BME280;22147;52.388;13.390;2023-08-06T03:11:51;99969.16;;;13.47;100.00
36092;BME280;22147;52.388;13.390;2023-08-06T03:14:20;99958.38;;;13.46;100.00
36092;BME280;22147;52.388;13.390;2023-08-06T03:16:48;99962.72;;;13.43;100.00
36092;BME280;22147;52.388;13.390;2023-08-06T03:19:17;99963.06;;;13.41;100.00
36092;BME280;22147;52.388;13.390;2023-08-06T03:21:45;99952.34;;;13.43;100.00
36092;BME280;22147;52.388;13.390;2023-08-06T03:24:14;99947.44;;;13.37;100.00
36092;BME280;22147;52.388;13.390;2023-08-06T03:26:42;99947.06;;;13.38;100.00
36092;BME280;22147;52.388;13.390;2023-08-06T03:29:10;99939.50;;;13.39;100.00
36092;BME280;22147;52.388;13.390;2023-08-06T03:31:39;99937.91;;;13.38;100.00
36092;BME280;22147;52.388;13.390;2023-08-06T03:34:07;99935.19;;;13.41;100.00
36092;BME280;22147;52.388;13.390;2023-08-06T03:36:36;99927.56;;;13.38;100.00
36092;BME280;22147;52.388;13.390;2023-08-06T03:39:04;99933.94;;;13.39;100.00
36092;BME280;22147;52.388;13.390;2023-08-06T03:41:32;99931.06;;;13.35;100.00
36092;BME280;22147;52.388;13.390;2023-08-06T03:44:02;99922.25;;;13.33;100.00
36092;BME280;22147;52.388;13.390;2023-08-06T03:46:32;99918.56;;;13.29;100.00
36092;BME280;22147;52.388;13.390;2023-08-06T03:49:01;99920.22;;;13.30;100.00
36092;BME280;22147;52.388;13.390;2023-08-06T03:51:29;99915.06;;;13.32;100.00
36092;BME280;22147;52.388;13.390;2023-08-06T03:53:57;99914.63;;;13.30;100.00
36092;BME280;22147;52.388;13.390;2023-08-06T03:56:26;99909.50;;;13.32;100.00
36092;BME280;22147;52.388;13.390;2023-08-06T03:58:54;99908.41;;;13.37;100.00
36092;BME280;22147;52.388;13.390;2023-08-06T04:01:23;99908.03;;;13.38;100.00
36092;BME280;22147;52.388;13.390;2023-08-06T04:03:51;99904.50;;;13.41;100.00
36092;BME280;22147;52.388;13.390;2023-08-06T04:06:20;99907.00;;;13.47;100.00
36092;BME280;22147;52.388;13.390;2023-08-06T04:08:48;99902.66;;;13.49;100.00
36092;BME280;22147;52.388;13.390;2023-08-06T04:11:16;99902.22;;;13.47;100.00
36092;BME280;22147;52.388;13.390;2023-08-06T04:13:45;99896.66;;;13.47;100.00
36092;BME280;22147;52.388;13.390;2023-08-06T04:16:13;99893.94;;;13.51;100.00
36092;BME280;22147;52.388;13.390;2023-08-06T04:18:42;99888.81;;;13.53;100.00
36092;BME280;22147;52.388;13.390;2023-08-06T04:21:10;99889.59;;;13.53;100.00
36092;BME280;22147;52.388;13.390;2023-08-06T04:23:38;99890.84;;;13.56;100.00
36092;BME280;22147;52.388;13.390;2023-08-06T04:26:07;99879.59;;;13.52;100.00
36092;BME280;22147;52.388;13.390;2023-08-06T04:28:35;99871.69;;;13.54;100.00
36092;BME280;22147;52.388;13.390;2023-08-06T04:31:04;99874.91;;;13.56;100.00
36092;BME280;22147;52.388;13.390;2023-08-06T04:33:32;99866.97;;;13.58;100.00
36092;BME280;22147;52.388;13.390;2023-08-06T04:36:01;99865.38;;;13.57;100.00
36092;BME280;22147;52.388;13.390;2023-08-06T04:38:29;99865.47;;;13.61;100.00
36092;BME280;22147;52.388;13.390;2023-08-06T04:40:58;99869.47;;;13.63;100.00
36092;BME280;22147;52.388;13.390;2023-08-06T04:43:26;99869.53;;;13.67;100.00
36092;BME280;22147;52.388;13.390;2023-08-06T04:45:55;99860.44;;;13.70;100.00
36092;BME280;22147;52.388;13.390;2023-08-06T04:48:26;99852.88;;;13.71;100.00
36092;BME280;22147;52.388;13.390;2023-08-06T04:50:56;99848.97;;;13.75;100.00
36092;BME280;22147;52.388;13.390;2023-08-06T04:53:25;99848.53;;;13.73;100.00
36092;BME280;22147;52.388;13.390;2023-08-06T04:55:55;99844.06;;;13.69;100.00
36092;BME280;22147;52.388;13.390;2023-08-06T04:58:25;99853.97;;;13.66;100.00
36092;BME280;22147;52.388;13.390;2023-08-06T05:00:55;99842.94;;;13.73;100.00
36092;BME280;22147;52.388;13.390;2023-08-06T05:03:25;99842.94;;;13.73;100.00
36092;BME280;22147;52.388;13.390;2023-08-06T05:05:55;99846.91;;;13.72;100.00
36092;BME280;22147;52.388;13.390;2023-08-06T05:08:25;99842.56;;;13.75;100.00
36092;BME280;22147;52.388;13.390;2023-08-06T05:10:54;99845.28;;;13.71;100.00
36092;BME280;22147;52.388;13.390;2023-08-06T05:13:24;99840.09;;;13.70;100.00
36092;BME280;22147;52.388;13.390;2023-08-06T05:15:55;99840.47;;;13.68;100.00
36092;BME280;22147;52.388;13.390;2023-08-06T05:18:25;99824.97;;;13.71;100.00
36092;BME280;22147;52.388;13.390;2023-08-06T05:20:55;99827.91;;;13.78;100.00
36092;BME280;22147;52.388;13.390;2023-08-06T05:23:25;99825.50;;;13.80;100.00
36092;BME280;22147;52.388;13.390;2023-08-06T05:25:54;99822.25;;;13.74;100.00
36092;BME280;22147;52.388;13.390;2023-08-06T05:28:24;99823.41;;;13.73;100.00
36092;BME280;22147;52.388;13.390;2023-08-06T05:30:54;99817.41;;;13.71;100.00
36092;BME280;22147;52.388;13.390;2023-08-06T05:33:24;99807.59;;;13.81;100.00
36092;BME280;22147;52.388;13.390;2023-08-06T05:35:54;99816.78;;;13.81;100.00
36092;BME280;22147;52.388;13.390;2023-08-06T05:38:24;99813.19;;;13.81;100.00
36092;BME280;22147;52.388;13.390;2023-08-06T05:40:54;99811.28;;;13.85;100.00
36092;BME280;22147;52.388;13.390;2023-08-06T05:43:25;99810.91;;;13.87;100.00
36092;BME280;22147;52.388;13.390;2023-08-06T05:45:56;99806.56;;;13.89;100.00
36092;BME280;22147;52.388;13.390;2023-08-06T05:48:26;99794.19;;;13.90;100.00
36092;BME280;22147;52.388;13.390;2023-08-06T05:50:54;99805.06;;;13.95;100.00
36092;BME280;22147;52.388;13.390;2023-08-06T05:53:23;99810.25;;;13.97;100.00
36092;BME280;22147;52.388;13.390;2023-08-06T05:55:51;99808.16;;;13.90;100.00
36092;BME280;22147;52.388;13.390;2023-08-06T05:58:19;99799.75;;;13.87;100.00
36092;BME280;22147;52.388;13.390;2023-08-06T06:00:48;99802.09;;;13.84;100.00
36092;BME280;22147;52.388;13.390;2023-08-06T06:03:16;99800.91;;;13.85;100.00
36092;BME280;22147;52.388;13.390;2023-08-06T06:05:45;99802.66;;;13.94;100.00
36092;BME280;22147;52.388;13.390;2023-08-06T06:08:13;99805.19;;;14.02;100.00
36092;BME280;22147;52.388;13.390;2023-08-06T06:10:41;99798.09;;;14.09;100.00
36092;BME280;22147;52.388;13.390;2023-08-06T06:13:10;99796.53;;;14.11;100.00
36092;BME280;22147;52.388;13.390;2023-08-06T06:15:38;99798.97;;;14.13;100.00
36092;BME280;22147;52.388;13.390;2023-08-06T06:18:07;99790.66;;;14.16;100.00
36092;BME280;22147;52.388;13.390;2023-08-06T06:20:35;99786.94;;;14.09;100.00
36092;BME280;22147;52.388;13.390;2023-08-06T06:23:04;99783.34;;;14.08;100.00
36092;BME280;22147;52.388;13.390;2023-08-06T06:25:32;99781.28;;;14.05;100.00
36092;BME280;22147;52.388;13.390;2023-08-06T06:28:00;99779.75;;;14.08;100.00
36092;BME280;22147;52.388;13.390;2023-08-06T06:30:29;99774.63;;;14.13;100.00
36092;BME280;22147;52.388;13.390;2023-08-06T06:32:57;99773.19;;;14.23;100.00
36092;BME280;22147;52.388;13.390;2023-08-06T06:35:26;99777.31;;;14.33;100.00
36092;BME280;22147;52.388;13.390;2023-08-06T06:37:54;99783.09;;;14.43;100.00
36092;BME280;22147;52.388;13.390;2023-08-06T06:40:22;99778.72;;;14.46;100.00
36092;BME280;22147;52.388;13.390;2023-08-06T06:42:51;99782.75;;;14.49;100.00
36092;BME280;22147;52.388;13.390;2023-08-06T06:45:20;99781.97;;;14.52;100.00
36092;BME280;22147;52.388;13.390;2023-08-06T06:47:48;99779.59;;;14.54;100.00
36092;BME280;22147;52.388;13.390;2023-08-06T06:50:15;99776.03;;;14.53;100.00
36092;BME280;22147;52.388;13.390;2023-08-06T06:52:44;99780.81;;;14.53;100.00
36092;BME280;22147;52.388;13.390;2023-08-06T06:55:12;99777.22;;;14.52;100.00
36092;BME280;22147;52.388;13.390;2023-08-06T06:57:40;99782.97;;;14.63;100.00
36092;BME280;22147;52.388;13.390;2023-08-06T07:00:09;99785.84;;;14.70;100.00
36092;BME280;22147;52.388;13.390;2023-08-06T07:02:37;99785.38;;;14.64;100.00
36092;BME280;22147;52.388;13.390;2023-08-06T07:05:06;99793.81;;;14.68;100.00
36092;BME280;22147;52.388;13.390;2023-08-06T07:07:34;99794.31;;;14.74;100.00
36092;BME280;22147;52.388;13.390;2023-08-06T07:10:03;99784.34;;;14.76;100.00
36092;BME280;22147;52.388;13.390;2023-08-06T07:12:31;99789.59;;;14.81;100.00
36092;BME280;22147;52.388;13.390;2023-08-06T07:14:59;99789.66;;;14.85;100.00
36092;BME280;22147;52.388;13.390;2023-08-06T07:17:28;99789.34;;;14.94;100.00
36092;BME280;22147;52.388;13.390;2023-08-06T07:19:56;99792.94;;;14.94;100.00
36092;BME280;22147;52.388;13.390;2023-08-06T07:22:24;99792.91;;;14.91;100.00
36092;BME280;22147;52.388;13.390;2023-08-06T07:24:53;99790.50;;;14.89;100.00
36092;BME280;22147;52.388;13.390;2023-08-06T07:27:21;99797.53;;;14.79;100.00
36092;BME280;22147;52.388;13.390;2023-08-06T07:29:50;99796.72;;;14.75;100.00
36092;BME280;22147;52.388;13.390;2023-08-06T07:32:18;99793.16;;;14.78;100.00
36092;BME280;22147;52.388;13.390;2023-08-06T07:34:47;99788.75;;;14.77;100.00
36092;BME280;22147;52.388;13.390;2023-08-06T07:37:15;99789.22;;;14.83;100.00
36092;BME280;22147;52.388;13.390;2023-08-06T07:39:43;99788.84;;;14.84;100.00
36092;BME280;22147;52.388;13.390;2023-08-06T07:42:12;99785.72;;;14.90;100.00
36092;BME280;22147;52.388;13.390;2023-08-06T07:44:40;99779.03;;;14.98;100.00
36092;BME280;22147;52.388;13.390;2023-08-06T07:47:09;99782.66;;;15.02;100.00
36092;BME280;22147;52.388;13.390;2023-08-06T07:49:37;99782.72;;;15.05;100.00
36092;BME280;22147;52.388;13.390;2023-08-06T07:52:06;99781.94;;;15.09;100.00
36092;BME280;22147;52.388;13.390;2023-08-06T07:54:34;99777.97;;;15.10;100.00
36092;BME280;22147;52.388;13.390;2023-08-06T07:57:02;99774.03;;;15.14;100.00
36092;BME280;22147;52.388;13.390;2023-08-06T07:59:31;99777.19;;;15.13;100.00
36092;BME280;22147;52.388;13.390;2023-08-06T08:02:00;99784.00;;;15.15;100.00
36092;BME280;22147;52.388;13.390;2023-08-06T08:04:31;99780.38;;;15.11;100.00
36092;BME280;22147;52.388;13.390;2023-08-06T08:07:01;99775.63;;;15.15;100.00
36092;BME280;22147;52.388;13.390;2023-08-06T08:09:32;99775.66;;;15.19;100.00
36092;BME280;22147;52.388;13.390;2023-08-06T08:12:02;99777.75;;;15.25;100.00
36092;BME280;22147;52.388;13.390;2023-08-06T08:14:33;99771.84;;;15.34;100.00
36092;BME280;22147;52.388;13.390;2023-08-06T08:17:06;99779.53;;;15.44;100.00
36092;BME280;22147;52.388;13.390;2023-08-06T08:19:36;99768.81;;;15.50;100.00
36092;BME280;22147;52.388;13.390;2023-08-06T08:22:07;99769.63;;;15.51;100.00
36092;BME280;22147;52.388;13.390;2023-08-06T08:24:37;99758.13;;;15.63;100.00
36092;BME280;22147;52.388;13.390;2023-08-06T08:27:07;99757.47;;;15.73;100.00
36092;BME280;22147;52.388;13.390;2023-08-06T08:29:37;99749.50;;;15.79;100.00
36092;BME280;22147;52.388;13.390;2023-08-06T08:32:08;99748.28;;;15.73;100.00
36092;BME280;22147;52.388;13.390;2023-08-06T08:34:38;99749.00;;;15.70;100.00
36092;BME280;22147;52.388;13.390;2023-08-06T08:37:08;99748.53;;;15.60;100.00
36092;BME280;22147;52.388;13.390;2023-08-06T08:39:39;99741.25;;;15.52;100.00
36092;BME280;22147;52.388;13.390;2023-08-06T08:42:10;99741.66;;;15.54;100.00
36092;BME280;22147;52.388;13.390;2023-08-06T08:44:42;99738.50;;;15.59;100.00
36092;BME280;22147;52.388;13.390;2023-08-06T08:47:15;99725.72;;;15.62;100.00
36092;BME280;22147;52.388;13.390;2023-08-06T08:49:49;99730.19;;;15.70;100.00
36092;BME280;22147;52.388;13.390;2023-08-06T08:52:25;99725.88;;;15.73;100.00
36092;BME280;22147;52.388;13.390;2023-08-06T08:55:01;99719.91;;;15.78;100.00
36092;BME280;22147;52.388;13.390;2023-08-06T08:57:32;99719.91;;;15.78;100.00
36092;BME280;22147;52.388;13.390;2023-08-06T09:00:00;99715.56;;;15.84;100.00
36092;BME280;22147;52.388;13.390;2023-08-06T09:02:32;99712.00;;;15.91;100.00
36092;BME280;22147;52.388;13.390;2023-08-06T09:05:05;99709.63;;;15.93;100.00
36092;BME280;22147;52.388;13.390;2023-08-06T09:07:42;99709.22;;;15.91;100.00
36092;BME280;22147;52.388;13.390;2023-08-06T09:10:21;99695.28;;;16.01;100.00
36092;BME280;22147;52.388;13.390;2023-08-06T09:12:57;99702.16;;;16.11;100.00
36092;BME280;22147;52.388;13.390;2023-08-06T09:15:26;99699.34;;;16.11;100.00
36092;BME280;22147;52.388;13.390;2023-08-06T09:17:56;99697.34;;;16.12;100.00
36092;BME280;22147;52.388;13.390;2023-08-06T09:20:25;99691.78;;;16.15;100.00
36092;BME280;22147;52.388;13.390;2023-08-06T09:22:54;99695.81;;;16.21;100.00
36092;BME280;22147;52.388;13.390;2023-08-06T09:25:24;99696.22;;;16.20;100.00
36092;BME280;22147;52.388;13.390;2023-08-06T09:27:56;99695.41;;;16.23;100.00
36092;BME280;22147;52.388;13.390;2023-08-06T09:30:32;99685.81;;;16.27;100.00
36092;BME280;22147;52.388;13.390;2023-08-06T09:33:08;99680.59;;;16.22;100.00
36092;BME280;22147;52.388;13.390;2023-08-06T09:35:46;99685.00;;;16.20;100.00
36092;BME280;22147;52.388;13.390;2023-08-06T09:38:17;99675.81;;;16.23;100.00
36092;BME280;22147;52.388;13.390;2023-08-06T09:40:47;99674.19;;;16.18;100.00
36092;BME280;22147;52.388;13.390;2023-08-06T09:43:19;99675.38;;;16.17;100.00
36092;BME280;22147;52.388;13.390;2023-08-06T09:45:47;99663.41;;;16.24;100.00
36092;BME280;22147;52.388;13.390;2023-08-06T09:48:15;99672.22;;;16.22;100.00
36092;BME280;22147;52.388;13.390;2023-08-06T09:50:44;99664.59;;;16.19;100.00
36092;BME280;22147;52.388;13.390;2023-08-06T09:53:18;99659.06;;;16.30;100.00
36092;BME280;22147;52.388;13.390;2023-08-06T09:55:49;99664.66;;;16.30;100.00
36092;BME280;22147;52.388;13.390;2023-08-06T09:58:24;99655.88;;;16.39;100.00
36092;BME280;22147;52.388;13.390;2023-08-06T10:00:55;99652.28;;;16.42;100.00
36092;BME280;22147;52.388;13.390;2023-08-06T10:03:27;99665.53;;;16.45;100.00
36092;BME280;22147;52.388;13.390;2023-08-06T10:05:59;99655.53;;;16.55;100.00
36092;BME280;22147;52.388;13.390;2023-08-06T10:08:32;99659.50;;;16.43;100.00
36092;BME280;22147;52.388;13.390;2023-08-06T10:11:04;99650.63;;;16.26;100.00
36092;BME280;22147;52.388;13.390;2023-08-06T10:13:37;99648.63;;;16.27;100.00
36092;BME280;22147;52.388;13.390;2023-08-06T10:16:09;99653.84;;;16.32;100.00
36092;BME280;22147;52.388;13.390;2023-08-06T10:18:41;99641.06;;;16.42;100.00
36092;BME280;22147;52.388;13.390;2023-08-06T10:21:13;99645.91;;;16.45;100.00
36092;BME280;22147;52.388;13.390;2023-08-06T10:23:44;99638.69;;;16.47;100.00
36092;BME280;22147;52.388;13.390;2023-08-06T10:26:16;99637.91;;;16.51;100.00
36092;BME280;22147;52.388;13.390;2023-08-06T10:28:47;99632.69;;;16.53;100.00
36092;BME280;22147;52.388;13.390;2023-08-06T10:31:17;99638.69;;;16.47;100.00
36092;BME280;22147;52.388;13.390;2023-08-06T10:33:47;99637.09;;;16.46;100.00
36092;BME280;22147;52.388;13.390;2023-08-06T10:36:18;99635.06;;;16.40;100.00
36092;BME280;22147;52.388;13.390;2023-08-06T10:38:50;99633.47;;;16.42;100.00
36092;BME280;22147;52.388;13.390;2023-08-06T10:41:29;99633.50;;;16.46;100.00
36092;BME280;22147;52.388;13.390;2023-08-06T10:44:07;99633.06;;;16.44;100.00
36092;BME280;22147;52.388;13.390;2023-08-06T10:46:39;99636.72;;;16.52;100.00
36092;BME280;22147;52.388;13.390;2023-08-06T10:49:11;99635.50;;;16.49;100.00
36092;BME280;22147;52.388;13.390;2023-08-06T10:51:44;99629.91;;;16.49;100.00
36092;BME280;22147;52.388;13.390;2023-08-06T10:54:15;99625.47;;;16.44;100.00
36092;BME280;22147;52.388;13.390;2023-08-06T10:56:45;99625.09;;;16.46;100.00
36092;BME280;22147;52.388;13.390;2023-08-06T10:59:16;99624.25;;;16.42;100.00
36092;BME280;22147;52.388;13.390;2023-08-06T11:01:45;99622.66;;;16.41;100.00
36092;BME280;22147;52.388;13.390;2023-08-06T11:04:13;99610.25;;;16.42;100.00
36092;BME280;22147;52.388;13.390;2023-08-06T11:06:52;99614.63;;;16.32;100.00
36092;BME280;22147;52.388;13.390;2023-08-06T11:09:25;99606.22;;;16.32;100.00
36092;BME280;22147;52.388;13.390;2023-08-06T11:11:56;99600.59;;;16.25;100.00
36092;BME280;22147;52.388;13.390;2023-08-06T11:14:26;99600.59;;;16.28;100.00
36092;BME280;22147;52.388;13.390;2023-08-06T11:16:57;99598.59;;;16.22;100.00
36092;BME280;22147;52.388;13.390;2023-08-06T11:19:27;99594.56;;;16.23;100.00
36092;BME280;22147;52.388;13.390;2023-08-06T11:21:57;99587.00;;;16.27;100.00
36092;BME280;22147;52.388;13.390;2023-08-06T11:24:29;99589.41;;;16.28;100.00
36092;BME280;22147;52.388;13.390;2023-08-06T11:26:59;99581.72;;;16.15;100.00
36092;BME280;22147;52.388;13.390;2023-08-06T11:29:29;99580.91;;;16.11;100.00
36092;BME280;22147;52.388;13.390;2023-08-06T11:32:06;99578.94;;;16.15;100.00
36092;BME280;22147;52.388;13.390;2023-08-06T11:34:35;99573.75;;;16.13;100.00
36092;BME280;22147;52.388;13.390;2023-08-06T11:37:07;99574.50;;;16.10;100.00
36092;BME280;22147;52.388;13.390;2023-08-06T11:39:38;99574.09;;;16.08;100.00
36092;BME280;22147;52.388;13.390;2023-08-06T11:42:14;99565.75;;;16.15;100.00
36092;BME280;22147;52.388;13.390;2023-08-06T11:44:44;99568.53;;;16.12;100.00
36092;BME280;22147;52.388;13.390;2023-08-06T11:47:17;99561.34;;;16.18;100.00
36092;BME280;22147;52.388;13.390;2023-08-06T11:49:49;99556.94;;;16.13;100.00
36092;BME280;22147;52.388;13.390;2023-08-06T11:52:22;99556.13;;;16.16;100.00
36092;BME280;22147;52.388;13.390;2023-08-06T11:55:09;99561.38;;;16.21;100.00
36092;BME280;22147;52.388;13.390;2023-08-06T11:57:45;99556.94;;;16.17;100.00
36092;BME280;22147;52.388;13.390;2023-08-06T12:00:15;99558.53;;;16.14;100.00
36092;BME280;22147;52.388;13.390;2023-08-06T12:02:47;99560.97;;;16.19;100.00
36092;BME280;22147;52.388;13.390;2023-08-06T12:05:22;99563.75;;;16.16;100.00
36092;BME280;22147;52.388;13.390;2023-08-06T12:07:59;99552.50;;;16.12;100.00
36092;BME280;22147;52.388;13.390;2023-08-06T12:10:31;99546.91;;;16.12;100.00
36092;BME280;22147;52.388;13.390;2023-08-06T12:13:02;99547.72;;;16.09;100.00
36092;BME280;22147;52.388;13.390;2023-08-06T12:15:32;99556.09;;;16.05;100.00
36092;BME280;22147;52.388;13.390;2023-08-06T12:18:02;99552.84;;;15.93;100.00
36092;BME280;22147;52.388;13.390;2023-08-06T12:20:33;99543.59;;;15.85;100.00
36092;BME280;22147;52.388;13.390;2023-08-06T12:23:03;99545.59;;;15.84;100.00
36092;BME280;22147;52.388;13.390;2023-08-06T12:25:32;99556.75;;;15.81;100.00
36092;BME280;22147;52.388;13.390;2023-08-06T12:28:03;99561.53;;;15.77;100.00
36092;BME280;22147;52.388;13.390;2023-08-06T12:30:33;99556.69;;;15.66;100.00
36092;BME280;22147;52.388;13.390;2023-08-06T12:33:03;99564.63;;;15.61;100.00
36092;BME280;22147;52.388;13.390;2023-08-06T12:35:33;99564.16;;;15.48;100.00
36092;BME280;22147;52.388;13.390;2023-08-06T12:38:01;99556.03;;;15.32;100.00
36092;BME280;22147;52.388;13.390;2023-08-06T12:40:30;99561.53;;;15.18;100.00
36092;BME280;22147;52.388;13.390;2023-08-06T12:43:06;99567.06;;;15.07;100.00
36092;BME280;22147;52.388;13.390;2023-08-06T12:45:36;99559.03;;;15.05;100.00
36092;BME280;22147;52.388;13.390;2023-08-06T12:48:06;99560.59;;;14.99;100.00
36092;BME280;22147;52.388;13.390;2023-08-06T12:50:36;99555.00;;;14.99;100.00
36092;BME280;22147;52.388;13.390;2023-08-06T12:53:06;99553.78;;;15.00;100.00
36092;BME280;22147;52.388;13.390;2023-08-06T12:55:36;99558.59;;;15.00;100.00
36092;BME280;22147;52.388;13.390;2023-08-06T12:58:06;99557.75;;;14.92;100.00